sensor_id;sensor_type;location;lat;lon;timestamp;pressure;altitude;pressure_sealevel;temperature;humidity
69737;BME280;64476;55.004;73.342;2023-02-02T00:01:24;102040.84;;;-13.03;48.64
69737;BME280;64476;55.004;73.342;2023-02-02T00:05:03;102055.28;;;-12.99;48.32
69737;BME280;64476;55.004;73.342;2023-02-02T00:08:05;102003.47;;;-13.20;48.71
69737;BME280;64476;55.004;73.342;2023-02-02T00:11:08;102006.31;;;-13.10;49.69
69737;BME280;64476;55.004;73.342;2023-02-02T00:14:44;102027.84;;;-12.92;49.20
69737;BME280;64476;55.004;73.342;2023-02-02T00:18:18;102034.13;;;-12.79;49.75
69737;BME280;64476;55.004;73.342;2023-02-02T00:21:20;102014.59;;;-12.86;49.12
69737;BME280;64476;55.004;73.342;2023-02-02T00:24:22;102015.88;;;-12.73;49.98
69737;BME280;64476;55.004;73.342;2023-02-02T00:27:24;101894.66;;;-13.44;50.00
69737;BME280;64476;55.004;73.342;2023-02-02T00:30:30;102015.88;;;-12.73;49.74
69737;BME280;64476;55.004;73.342;2023-02-02T00:33:47;102020.03;;;-12.74;49.43
69737;BME280;64476;55.004;73.342;2023-02-02T00:36:50;102034.59;;;-12.63;48.88
69737;BME280;64476;55.004;73.342;2023-02-02T00:39:52;102025.34;;;-12.64;49.81
69737;BME280;64476;55.004;73.342;2023-02-02T00:42:54;102034.59;;;-12.63;49.76
69737;BME280;64476;55.004;73.342;2023-02-02T00:46:17;101969.72;;;-13.01;48.96
69737;BME280;64476;55.004;73.342;2023-02-02T00:49:19;102039.59;;;-12.65;49.12
69737;BME280;64476;55.004;73.342;2023-02-02T00:52:20;102015.66;;;-12.79;49.73
69737;BME280;64476;55.004;73.342;2023-02-02T00:55:26;101978.88;;;-13.03;49.70
69737;BME280;64476;55.004;73.342;2023-02-02T00:58:33;102019.00;;;-12.80;48.94
69737;BME280;64476;55.004;73.342;2023-02-02T01:01:35;101962.69;;;-13.11;49.34
69737;BME280;64476;55.004;73.342;2023-02-02T01:04:36;102030.25;;;-12.69;49.75
69737;BME280;64476;55.004;73.342;2023-02-02T01:07:39;101940.31;;;-13.30;48.85
69737;BME280;64476;55.004;73.342;2023-02-02T01:10:40;101973.66;;;-13.09;48.72
69737;BME280;64476;55.004;73.342;2023-02-02T01:13:42;102006.94;;;-12.91;49.07
69737;BME280;64476;55.004;73.342;2023-02-02T01:16:44;101946.09;;;-13.33;48.36
69737;BME280;64476;55.004;73.342;2023-02-02T01:19:46;102024.19;;;-13.01;48.84
69737;BME280;64476;55.004;73.342;2023-02-02T01:22:48;102044.59;;;-12.92;48.59
69737;BME280;64476;55.004;73.342;2023-02-02T01:25:54;102045.09;;;-13.02;48.60
69737;BME280;64476;55.004;73.342;2023-02-02T01:28:56;101995.81;;;-13.24;48.33
69737;BME280;64476;55.004;73.342;2023-02-02T01:31:58;102031.44;;;-13.10;48.85
69737;BME280;64476;55.004;73.342;2023-02-02T01:34:59;102040.94;;;-13.02;49.53
69737;BME280;64476;55.004;73.342;2023-02-02T01:38:01;102024.75;;;-13.10;49.41
69737;BME280;64476;55.004;73.342;2023-02-02T01:41:03;101979.28;;;-13.43;49.15
69737;BME280;64476;55.004;73.342;2023-02-02T01:47:59;102022.72;;;-13.20;49.24
69737;BME280;64476;55.004;73.342;2023-02-02T01:51:13;102049.06;;;-13.09;48.23
69737;BME280;64476;55.004;73.342;2023-02-02T01:58:40;102054.09;;;-13.09;48.54
69737;BME280;64476;55.004;73.342;2023-02-02T02:01:45;101999.38;;;-13.43;48.35
69737;BME280;64476;55.004;73.342;2023-02-02T02:05:00;102042.00;;;-13.21;48.32
69737;BME280;64476;55.004;73.342;2023-02-02T02:08:17;102069.81;;;-13.15;48.50
69737;BME280;64476;55.004;73.342;2023-02-02T02:11:31;102017.50;;;-13.52;49.27
69737;BME280;64476;55.004;73.342;2023-02-02T02:14:39;102065.81;;;-13.35;48.46
69737;BME280;64476;55.004;73.342;2023-02-02T02:18:26;101994.34;;;-13.69;49.05
69737;BME280;64476;55.004;73.342;2023-02-02T02:21:43;102069.41;;;-13.28;48.67
69737;BME280;64476;55.004;73.342;2023-02-02T02:36:18;102072.50;;;-13.10;49.33
69737;BME280;64476;55.004;73.342;2023-02-02T02:39:26;102066.78;;;-13.06;48.77
69737;BME280;64476;55.004;73.342;2023-02-02T02:42:35;101998.44;;;-13.47;48.83
69737;BME280;64476;55.004;73.342;2023-02-02T02:45:49;101998.72;;;-13.37;49.45
69737;BME280;64476;55.004;73.342;2023-02-02T02:48:51;102046.25;;;-13.18;49.38
69737;BME280;64476;55.004;73.342;2023-02-02T02:51:54;102077.09;;;-12.98;48.81
69737;BME280;64476;55.004;73.342;2023-02-02T02:55:19;101997.38;;;-13.53;49.48
69737;BME280;64476;55.004;73.342;2023-02-02T02:58:51;102049.78;;;-13.13;48.82
69737;BME280;64476;55.004;73.342;2023-02-02T03:02:23;102025.16;;;-13.22;50.20
69737;BME280;64476;55.004;73.342;2023-02-02T03:12:09;101997.13;;;-13.35;49.52
69737;BME280;64476;55.004;73.342;2023-02-02T03:15:19;102067.03;;;-12.98;50.34
69737;BME280;64476;55.004;73.342;2023-02-02T03:18:22;102091.84;;;-12.82;49.35
69737;BME280;64476;55.004;73.342;2023-02-02T03:21:28;102076.00;;;-12.81;49.99
69737;BME280;64476;55.004;73.342;2023-02-02T03:24:29;101937.44;;;-13.68;49.20
69737;BME280;64476;55.004;73.342;2023-02-02T03:27:37;102028.75;;;-13.15;49.54
69737;BME280;64476;55.004;73.342;2023-02-02T03:30:40;102068.84;;;-12.94;49.17
69737;BME280;64476;55.004;73.342;2023-02-02T03:33:46;101905.66;;;-13.92;48.79
69737;BME280;64476;55.004;73.342;2023-02-02T03:36:48;102073.75;;;-12.97;49.66
69737;BME280;64476;55.004;73.342;2023-02-02T03:39:50;101960.84;;;-13.69;49.78
69737;BME280;64476;55.004;73.342;2023-02-02T03:42:58;102094.09;;;-12.91;49.40
69737;BME280;64476;55.004;73.342;2023-02-02T03:46:01;102041.06;;;-13.23;49.37
69737;BME280;64476;55.004;73.342;2023-02-02T03:49:13;102072.81;;;-13.01;49.92
69737;BME280;64476;55.004;73.342;2023-02-02T03:52:15;102097.41;;;-12.92;49.70
69737;BME280;64476;55.004;73.342;2023-02-02T03:55:26;102070.69;;;-13.14;49.32
69737;BME280;64476;55.004;73.342;2023-02-02T03:58:32;102041.44;;;-13.37;49.51
69737;BME280;64476;55.004;73.342;2023-02-02T04:01:39;102065.94;;;-13.32;49.96
69737;BME280;64476;55.004;73.342;2023-02-02T04:04:46;102102.22;;;-13.24;49.89
69737;BME280;64476;55.004;73.342;2023-02-02T04:08:02;101961.81;;;-14.14;49.67
69737;BME280;64476;55.004;73.342;2023-02-02T04:11:09;102087.41;;;-13.40;49.38
69737;BME280;64476;55.004;73.342;2023-02-02T04:14:11;102113.03;;;-13.26;49.89
69737;BME280;64476;55.004;73.342;2023-02-02T04:17:17;102080.75;;;-13.40;50.40
69737;BME280;64476;55.004;73.342;2023-02-02T04:20:29;102099.78;;;-13.21;49.60
69737;BME280;64476;55.004;73.342;2023-02-02T04:23:32;102047.88;;;-13.46;50.36
69737;BME280;64476;55.004;73.342;2023-02-02T04:27:12;102043.47;;;-13.51;49.90
69737;BME280;64476;55.004;73.342;2023-02-02T04:30:14;102100.91;;;-13.12;49.30
69737;BME280;64476;55.004;73.342;2023-02-02T04:33:27;102088.94;;;-13.20;49.54
69737;BME280;64476;55.004;73.342;2023-02-02T04:36:29;102012.88;;;-13.65;49.63
69737;BME280;64476;55.004;73.342;2023-02-02T04:39:34;102107.16;;;-13.01;49.86
69737;BME280;64476;55.004;73.342;2023-02-02T04:42:36;102106.69;;;-12.90;49.79
69737;BME280;64476;55.004;73.342;2023-02-02T04:45:54;102100.84;;;-12.88;49.76
69737;BME280;64476;55.004;73.342;2023-02-02T04:48:56;102121.53;;;-12.72;49.37
69737;BME280;64476;55.004;73.342;2023-02-02T04:51:57;102114.03;;;-12.70;49.96
69737;BME280;64476;55.004;73.342;2023-02-02T04:54:59;102093.84;;;-12.73;49.63
69737;BME280;64476;55.004;73.342;2023-02-02T04:58:01;102128.34;;;-12.44;50.12
69737;BME280;64476;55.004;73.342;2023-02-02T05:01:16;102124.91;;;-12.46;49.42
69737;BME280;64476;55.004;73.342;2023-02-02T05:07:51;102144.13;;;-12.22;50.51
69737;BME280;64476;55.004;73.342;2023-02-02T05:10:52;102121.28;;;-12.27;50.16
69737;BME280;64476;55.004;73.342;2023-02-02T05:13:54;102129.25;;;-12.14;49.72
69737;BME280;64476;55.004;73.342;2023-02-02T05:16:59;102126.88;;;-12.08;50.67
69737;BME280;64476;55.004;73.342;2023-02-02T05:20:01;102121.19;;;-12.03;49.85
69737;BME280;64476;55.004;73.342;2023-02-02T05:23:15;102117.13;;;-11.98;49.95
69737;BME280;64476;55.004;73.342;2023-02-02T05:26:28;102046.63;;;-12.26;49.88
69737;BME280;64476;55.004;73.342;2023-02-02T05:29:39;102047.34;;;-12.30;50.44
69737;BME280;64476;55.004;73.342;2023-02-02T05:32:42;102117.38;;;-11.90;50.07
69737;BME280;64476;55.004;73.342;2023-02-02T05:35:47;102131.25;;;-11.74;50.15
69737;BME280;64476;55.004;73.342;2023-02-02T05:38:54;102120.16;;;-11.79;49.38
69737;BME280;64476;55.004;73.342;2023-02-02T05:45:59;102102.59;;;-11.78;49.22
69737;BME280;64476;55.004;73.342;2023-02-02T05:49:39;102128.66;;;-11.47;50.90
69737;BME280;64476;55.004;73.342;2023-02-02T05:52:42;102127.28;;;-11.36;50.00
69737;BME280;64476;55.004;73.342;2023-02-02T05:55:46;102118.88;;;-11.36;49.68
69737;BME280;64476;55.004;73.342;2023-02-02T05:58:47;102120.00;;;-11.25;50.57
69737;BME280;64476;55.004;73.342;2023-02-02T06:01:50;102126.38;;;-11.08;50.77
69737;BME280;64476;55.004;73.342;2023-02-02T06:05:01;102055.84;;;-11.36;50.25
69737;BME280;64476;55.004;73.342;2023-02-02T06:08:05;102109.00;;;-10.96;49.74
69737;BME280;64476;55.004;73.342;2023-02-02T06:11:11;102104.31;;;-10.82;50.26
69737;BME280;64476;55.004;73.342;2023-02-02T06:14:13;102084.19;;;-10.79;50.01
69737;BME280;64476;55.004;73.342;2023-02-02T06:17:15;102121.41;;;-10.35;50.52
69737;BME280;64476;55.004;73.342;2023-02-02T06:20:18;102110.78;;;-10.21;50.14
69737;BME280;64476;55.004;73.342;2023-02-02T06:23:31;102011.66;;;-10.51;49.37
69737;BME280;64476;55.004;73.342;2023-02-02T06:30:24;102049.16;;;-9.89;49.76
69737;BME280;64476;55.004;73.342;2023-02-02T06:33:25;102012.00;;;-9.93;49.54
69737;BME280;64476;55.004;73.342;2023-02-02T06:36:32;102087.31;;;-9.33;48.98
69737;BME280;64476;55.004;73.342;2023-02-02T06:39:34;102062.94;;;-9.28;48.58
69737;BME280;64476;55.004;73.342;2023-02-02T06:42:35;102099.03;;;-8.91;48.51
69737;BME280;64476;55.004;73.342;2023-02-02T06:45:37;102098.44;;;-8.77;48.92
69737;BME280;64476;55.004;73.342;2023-02-02T06:48:40;102079.91;;;-8.74;48.80
69737;BME280;64476;55.004;73.342;2023-02-02T06:51:42;101930.19;;;-9.52;48.81
69737;BME280;64476;55.004;73.342;2023-02-02T06:54:53;102099.94;;;-8.33;48.38
69737;BME280;64476;55.004;73.342;2023-02-02T06:57:59;102080.53;;;-8.33;47.82
69737;BME280;64476;55.004;73.342;2023-02-02T07:01:32;101976.97;;;-8.75;48.10
69737;BME280;64476;55.004;73.342;2023-02-02T07:04:34;102076.00;;;-7.94;47.83
69737;BME280;64476;55.004;73.342;2023-02-02T07:07:36;102058.22;;;-7.96;47.50
69737;BME280;64476;55.004;73.342;2023-02-02T07:10:48;102078.09;;;-7.61;47.06
69737;BME280;64476;55.004;73.342;2023-02-02T07:13:50;102080.00;;;-7.42;47.16
69737;BME280;64476;55.004;73.342;2023-02-02T07:16:54;102077.66;;;-7.25;46.85
69737;BME280;64476;55.004;73.342;2023-02-02T07:20:01;102036.09;;;-7.33;46.79
69737;BME280;64476;55.004;73.342;2023-02-02T07:23:02;102062.59;;;-7.07;46.63
69737;BME280;64476;55.004;73.342;2023-02-02T07:26:06;102076.34;;;-6.82;46.35
69737;BME280;64476;55.004;73.342;2023-02-02T07:29:11;102034.72;;;-7.00;46.45
69737;BME280;64476;55.004;73.342;2023-02-02T07:32:16;102046.72;;;-6.83;46.33
69737;BME280;64476;55.004;73.342;2023-02-02T07:35:18;102059.53;;;-6.69;46.36
69737;BME280;64476;55.004;73.342;2023-02-02T07:38:20;102072.41;;;-6.46;46.49
69737;BME280;64476;55.004;73.342;2023-02-02T07:41:22;102059.78;;;-6.35;46.01
69737;BME280;64476;55.004;73.342;2023-02-02T07:44:34;102040.28;;;-6.35;46.07
69737;BME280;64476;55.004;73.342;2023-02-02T07:47:41;102064.16;;;-6.11;46.07
69737;BME280;64476;55.004;73.342;2023-02-02T07:50:50;102002.13;;;-6.41;46.12
69737;BME280;64476;55.004;73.342;2023-02-02T07:54:00;102030.97;;;-6.34;46.26
69737;BME280;64476;55.004;73.342;2023-02-02T07:57:01;102043.75;;;-6.23;46.17
69737;BME280;64476;55.004;73.342;2023-02-02T08:00:19;102030.94;;;-6.40;46.51
69737;BME280;64476;55.004;73.342;2023-02-02T08:03:20;102029.19;;;-6.44;47.16
69737;BME280;64476;55.004;73.342;2023-02-02T08:06:25;102041.13;;;-6.36;46.46
69737;BME280;64476;55.004;73.342;2023-02-02T08:09:28;102043.63;;;-6.42;46.92
69737;BME280;64476;55.004;73.342;2023-02-02T08:12:31;101996.81;;;-6.77;46.66
69737;BME280;64476;55.004;73.342;2023-02-02T08:15:32;102026.56;;;-6.61;47.07
69737;BME280;64476;55.004;73.342;2023-02-02T08:18:35;102040.13;;;-6.59;47.35
69737;BME280;64476;55.004;73.342;2023-02-02T08:21:37;102048.66;;;-6.49;47.32
69737;BME280;64476;55.004;73.342;2023-02-02T08:24:40;102048.63;;;-6.54;47.52
69737;BME280;64476;55.004;73.342;2023-02-02T08:27:43;102022.28;;;-6.70;47.50
69737;BME280;64476;55.004;73.342;2023-02-02T08:30:45;101995.09;;;-6.85;47.27
69737;BME280;64476;55.004;73.342;2023-02-02T08:33:46;102052.06;;;-6.50;47.49
69737;BME280;64476;55.004;73.342;2023-02-02T08:36:52;101971.22;;;-7.03;47.13
69737;BME280;64476;55.004;73.342;2023-02-02T08:39:54;102028.25;;;-6.62;47.45
69737;BME280;64476;55.004;73.342;2023-02-02T08:42:57;102033.38;;;-6.57;47.05
69737;BME280;64476;55.004;73.342;2023-02-02T08:46:01;101990.94;;;-6.73;47.11
69737;BME280;64476;55.004;73.342;2023-02-02T08:49:15;102027.53;;;-6.44;46.79
69737;BME280;64476;55.004;73.342;2023-02-02T08:52:16;102033.66;;;-6.10;46.51
69737;BME280;64476;55.004;73.342;2023-02-02T08:55:18;101992.97;;;-6.10;46.46
69737;BME280;64476;55.004;73.342;2023-02-02T08:58:20;102030.44;;;-5.58;45.91
69737;BME280;64476;55.004;73.342;2023-02-02T09:01:28;102023.69;;;-5.35;45.94
69737;BME280;64476;55.004;73.342;2023-02-02T09:04:30;102011.84;;;-5.19;45.42
69737;BME280;64476;55.004;73.342;2023-02-02T09:07:32;101976.19;;;-5.13;45.77
69737;BME280;64476;55.004;73.342;2023-02-02T09:10:39;101908.28;;;-5.35;45.62
69737;BME280;64476;55.004;73.342;2023-02-02T09:13:47;102006.72;;;-4.61;45.20
69737;BME280;64476;55.004;73.342;2023-02-02T09:16:49;101944.75;;;-4.86;45.08
69737;BME280;64476;55.004;73.342;2023-02-02T09:19:56;101948.09;;;-4.65;44.52
69737;BME280;64476;55.004;73.342;2023-02-02T09:22:58;101987.97;;;-4.35;45.02
69737;BME280;64476;55.004;73.342;2023-02-02T09:26:21;101955.66;;;-4.36;44.34
69737;BME280;64476;55.004;73.342;2023-02-02T09:29:23;101987.88;;;-4.07;44.63
69737;BME280;64476;55.004;73.342;2023-02-02T09:32:25;102000.53;;;-3.88;44.39
69737;BME280;64476;55.004;73.342;2023-02-02T09:35:26;101992.88;;;-3.81;44.08
69737;BME280;64476;55.004;73.342;2023-02-02T09:38:28;101952.16;;;-4.01;44.02
69737;BME280;64476;55.004;73.342;2023-02-02T09:45:06;102004.78;;;-3.79;43.17
69737;BME280;64476;55.004;73.342;2023-02-02T09:49:00;101995.44;;;-3.86;42.98
69737;BME280;64476;55.004;73.342;2023-02-02T09:52:13;101823.34;;;-5.05;43.15
69737;BME280;64476;55.004;73.342;2023-02-02T09:55:34;101994.66;;;-4.06;42.85
69737;BME280;64476;55.004;73.342;2023-02-02T09:58:48;102008.28;;;-4.06;43.67
69737;BME280;64476;55.004;73.342;2023-02-02T10:02:04;102004.06;;;-4.11;43.41
69737;BME280;64476;55.004;73.342;2023-02-02T10:05:23;102009.16;;;-4.15;43.57
69737;BME280;64476;55.004;73.342;2023-02-02T10:08:33;101980.34;;;-4.38;43.49
69737;BME280;64476;55.004;73.342;2023-02-02T10:11:45;102006.66;;;-4.27;43.75
69737;BME280;64476;55.004;73.342;2023-02-02T10:14:55;102020.25;;;-4.26;43.30
69737;BME280;64476;55.004;73.342;2023-02-02T10:18:03;101968.50;;;-4.62;44.04
69737;BME280;64476;55.004;73.342;2023-02-02T10:21:37;101968.53;;;-4.77;43.88
69737;BME280;64476;55.004;73.342;2023-02-02T10:24:50;102005.03;;;-4.69;44.37
69737;BME280;64476;55.004;73.342;2023-02-02T10:28:17;102021.16;;;-4.69;43.79
69737;BME280;64476;55.004;73.342;2023-02-02T10:35:33;102000.81;;;-5.02;43.59
69737;BME280;64476;55.004;73.342;2023-02-02T10:42:14;102014.38;;;-5.05;43.66
69737;BME280;64476;55.004;73.342;2023-02-02T10:45:20;101818.34;;;-6.32;43.12
69737;BME280;64476;55.004;73.342;2023-02-02T10:48:32;101913.31;;;-5.92;43.37
69737;BME280;64476;55.004;73.342;2023-02-02T10:56:09;102022.78;;;-5.53;43.16
69737;BME280;64476;55.004;73.342;2023-02-02T10:59:16;102012.56;;;-5.67;42.67
69737;BME280;64476;55.004;73.342;2023-02-02T11:02:31;101960.81;;;-5.98;42.95
69737;BME280;64476;55.004;73.342;2023-02-02T11:05:39;102037.19;;;-5.66;42.73
69737;BME280;64476;55.004;73.342;2023-02-02T11:08:59;102005.72;;;-6.00;42.33
69737;BME280;64476;55.004;73.342;2023-02-02T11:12:45;102021.78;;;-6.11;42.88
69737;BME280;64476;55.004;73.342;2023-02-02T11:22:34;101932.16;;;-7.22;43.03
69737;BME280;64476;55.004;73.342;2023-02-02T11:25:37;101960.94;;;-7.19;43.35
69737;BME280;64476;55.004;73.342;2023-02-02T11:28:51;102038.28;;;-6.80;43.61
69737;BME280;64476;55.004;73.342;2023-02-02T11:31:55;101993.22;;;-7.06;43.63
69737;BME280;64476;55.004;73.342;2023-02-02T11:38:13;102026.28;;;-6.96;43.47
69737;BME280;64476;55.004;73.342;2023-02-02T11:41:18;102015.16;;;-7.12;43.66
69737;BME280;64476;55.004;73.342;2023-02-02T11:44:24;102007.53;;;-7.14;43.27
69737;BME280;64476;55.004;73.342;2023-02-02T11:51:21;101944.41;;;-7.70;43.23
69737;BME280;64476;55.004;73.342;2023-02-02T11:54:30;101996.28;;;-7.43;43.35
69737;BME280;64476;55.004;73.342;2023-02-02T11:57:33;102037.06;;;-7.23;43.60
69737;BME280;64476;55.004;73.342;2023-02-02T12:00:49;102026.88;;;-7.28;43.64
69737;BME280;64476;55.004;73.342;2023-02-02T12:03:53;101992.78;;;-7.53;43.49
69737;BME280;64476;55.004;73.342;2023-02-02T12:14:02;101903.44;;;-8.13;43.99
69737;BME280;64476;55.004;73.342;2023-02-02T12:17:36;102015.63;;;-7.51;43.83
69737;BME280;64476;55.004;73.342;2023-02-02T12:21:04;102003.59;;;-7.71;44.05
69737;BME280;64476;55.004;73.342;2023-02-02T12:27:45;102009.41;;;-7.78;43.91
69737;BME280;64476;55.004;73.342;2023-02-02T12:34:56;102010.34;;;-7.73;44.26
69737;BME280;64476;55.004;73.342;2023-02-02T12:45:03;102007.69;;;-7.81;44.31
69737;BME280;64476;55.004;73.342;2023-02-02T12:56:03;101981.94;;;-8.14;44.55
69737;BME280;64476;55.004;73.342;2023-02-02T13:06:41;101993.53;;;-8.35;45.08
69737;BME280;64476;55.004;73.342;2023-02-02T13:20:42;102013.75;;;-8.36;44.99
69737;BME280;64476;55.004;73.342;2023-02-02T13:26:58;101966.84;;;-8.73;45.18
69737;BME280;64476;55.004;73.342;2023-02-02T13:30:12;102029.66;;;-8.48;44.79
69737;BME280;64476;55.004;73.342;2023-02-02T13:33:27;101999.84;;;-8.67;44.84
69737;BME280;64476;55.004;73.342;2023-02-02T13:36:32;101993.84;;;-8.74;45.30
69737;BME280;64476;55.004;73.342;2023-02-02T13:39:42;102013.47;;;-8.59;45.19
69737;BME280;64476;55.004;73.342;2023-02-02T13:49:29;102007.34;;;-8.73;44.89
69737;BME280;64476;55.004;73.342;2023-02-02T13:56:32;102020.13;;;-8.66;45.09
69737;BME280;64476;55.004;73.342;2023-02-02T14:07:03;101980.84;;;-8.95;45.23
69737;BME280;64476;55.004;73.342;2023-02-02T14:14:20;102012.28;;;-8.81;45.24
69737;BME280;64476;55.004;73.342;2023-02-02T14:17:48;102011.41;;;-8.85;44.89
69737;BME280;64476;55.004;73.342;2023-02-02T14:20:59;101999.41;;;-8.95;45.45
69737;BME280;64476;55.004;73.342;2023-02-02T14:27:40;101933.78;;;-9.39;45.39
69737;BME280;64476;55.004;73.342;2023-02-02T14:34:40;101990.63;;;-9.17;45.53
69737;BME280;64476;55.004;73.342;2023-02-02T14:37:55;102006.72;;;-9.13;46.65
69737;BME280;64476;55.004;73.342;2023-02-02T14:41:17;101999.00;;;-9.21;46.21
69737;BME280;64476;55.004;73.342;2023-02-02T14:51:59;102009.09;;;-9.22;45.57
69737;BME280;64476;55.004;73.342;2023-02-02T14:55:18;101921.19;;;-9.86;45.54
69737;BME280;64476;55.004;73.342;2023-02-02T14:58:25;102009.75;;;-9.33;45.47
69737;BME280;64476;55.004;73.342;2023-02-02T15:01:30;101996.97;;;-9.42;45.36
69737;BME280;64476;55.004;73.342;2023-02-02T15:04:38;101997.78;;;-9.43;45.84
69737;BME280;64476;55.004;73.342;2023-02-02T15:11:18;101931.38;;;-9.81;45.66
69737;BME280;64476;55.004;73.342;2023-02-02T15:18:11;102023.13;;;-9.40;45.22
69737;BME280;64476;55.004;73.342;2023-02-02T15:21:40;101995.94;;;-9.50;45.40
69737;BME280;64476;55.004;73.342;2023-02-02T15:25:40;102005.31;;;-9.46;45.33
69737;BME280;64476;55.004;73.342;2023-02-02T15:28:57;101964.34;;;-9.75;45.25
69737;BME280;64476;55.004;73.342;2023-02-02T15:32:00;101949.13;;;-9.77;45.22
69737;BME280;64476;55.004;73.342;2023-02-02T15:35:06;101934.53;;;-9.91;45.24
69737;BME280;64476;55.004;73.342;2023-02-02T15:38:15;102008.69;;;-9.45;45.25
69737;BME280;64476;55.004;73.342;2023-02-02T15:41:19;101995.22;;;-9.46;45.50
69737;BME280;64476;55.004;73.342;2023-02-02T15:44:27;101949.94;;;-9.79;45.51
69737;BME280;64476;55.004;73.342;2023-02-02T15:47:36;101965.19;;;-9.75;45.67
69737;BME280;64476;55.004;73.342;2023-02-02T15:50:43;101931.09;;;-9.95;45.54
69737;BME280;64476;55.004;73.342;2023-02-02T15:53:56;101987.31;;;-9.61;45.38
69737;BME280;64476;55.004;73.342;2023-02-02T15:57:02;101944.56;;;-9.96;45.57
69737;BME280;64476;55.004;73.342;2023-02-02T16:00:25;101986.19;;;-9.77;45.08
69737;BME280;64476;55.004;73.342;2023-02-02T16:07:18;101977.56;;;-9.87;45.29
69737;BME280;64476;55.004;73.342;2023-02-02T16:11:15;101983.31;;;-9.95;45.13
69737;BME280;64476;55.004;73.342;2023-02-02T16:14:27;101952.63;;;-10.14;44.98
69737;BME280;64476;55.004;73.342;2023-02-02T16:17:32;101984.09;;;-10.00;45.20
69737;BME280;64476;55.004;73.342;2023-02-02T16:20:36;101995.13;;;-9.94;45.34
69737;BME280;64476;55.004;73.342;2023-02-02T16:23:38;101983.03;;;-10.11;45.81
69737;BME280;64476;55.004;73.342;2023-02-02T16:26:45;101973.59;;;-10.19;45.96
69737;BME280;64476;55.004;73.342;2023-02-02T16:29:58;101997.34;;;-10.10;45.22
69737;BME280;64476;55.004;73.342;2023-02-02T16:36:40;102007.38;;;-10.13;45.12
69737;BME280;64476;55.004;73.342;2023-02-02T16:39:55;101945.78;;;-10.62;46.14
69737;BME280;64476;55.004;73.342;2023-02-02T16:43:14;101994.53;;;-10.27;45.26
69737;BME280;64476;55.004;73.342;2023-02-02T16:49:38;101893.91;;;-10.88;45.17
69737;BME280;64476;55.004;73.342;2023-02-02T16:55:51;101997.66;;;-10.37;45.80
69737;BME280;64476;55.004;73.342;2023-02-02T16:59:26;102004.75;;;-10.19;45.60
69737;BME280;64476;55.004;73.342;2023-02-02T17:02:35;101999.56;;;-10.24;45.51
69737;BME280;64476;55.004;73.342;2023-02-02T17:09:14;101953.72;;;-10.45;45.84
69737;BME280;64476;55.004;73.342;2023-02-02T17:15:26;101955.44;;;-10.42;46.32
69737;BME280;64476;55.004;73.342;2023-02-02T17:18:29;101995.34;;;-10.25;45.27
69737;BME280;64476;55.004;73.342;2023-02-02T17:21:30;102010.66;;;-10.18;46.41
69737;BME280;64476;55.004;73.342;2023-02-02T17:24:34;101930.47;;;-10.69;45.33
69737;BME280;64476;55.004;73.342;2023-02-02T17:27:35;102017.03;;;-10.36;45.54
69737;BME280;64476;55.004;73.342;2023-02-02T17:30:43;102000.63;;;-10.55;45.60
69737;BME280;64476;55.004;73.342;2023-02-02T17:33:49;102012.25;;;-10.63;45.38
69737;BME280;64476;55.004;73.342;2023-02-02T17:36:50;102001.91;;;-10.74;45.25
69737;BME280;64476;55.004;73.342;2023-02-02T17:39:54;102021.34;;;-10.69;45.26
69737;BME280;64476;55.004;73.342;2023-02-02T17:42:57;102042.59;;;-10.60;46.29
69737;BME280;64476;55.004;73.342;2023-02-02T17:45:59;101981.22;;;-10.95;46.45
69737;BME280;64476;55.004;73.342;2023-02-02T17:49:12;102017.06;;;-10.72;46.48
69737;BME280;64476;55.004;73.342;2023-02-02T17:52:14;101975.41;;;-10.91;46.35
69737;BME280;64476;55.004;73.342;2023-02-02T17:55:30;102022.41;;;-10.60;45.83
69737;BME280;64476;55.004;73.342;2023-02-02T17:58:32;102024.81;;;-10.64;46.68
69737;BME280;64476;55.004;73.342;2023-02-02T18:01:37;102002.75;;;-10.73;46.52
69737;BME280;64476;55.004;73.342;2023-02-02T18:04:41;102015.69;;;-10.59;45.76
69737;BME280;64476;55.004;73.342;2023-02-02T18:07:43;102017.41;;;-10.57;46.25
69737;BME280;64476;55.004;73.342;2023-02-02T18:10:54;102011.59;;;-10.54;45.60
69737;BME280;64476;55.004;73.342;2023-02-02T18:17:38;101961.81;;;-10.98;45.71
69737;BME280;64476;55.004;73.342;2023-02-02T18:20:41;102001.75;;;-10.80;46.23
69737;BME280;64476;55.004;73.342;2023-02-02T18:23:53;101944.53;;;-11.18;46.48
69737;BME280;64476;55.004;73.342;2023-02-02T18:26:57;102007.63;;;-10.81;45.66
69737;BME280;64476;55.004;73.342;2023-02-02T18:29:59;101990.88;;;-10.77;46.19
69737;BME280;64476;55.004;73.342;2023-02-02T18:33:00;102012.94;;;-10.68;46.47
69737;BME280;64476;55.004;73.342;2023-02-02T18:36:08;102007.53;;;-10.84;45.43
69737;BME280;64476;55.004;73.342;2023-02-02T18:39:22;102013.34;;;-10.86;45.08
69737;BME280;64476;55.004;73.342;2023-02-02T18:42:23;102001.97;;;-11.05;44.99
69737;BME280;64476;55.004;73.342;2023-02-02T18:45:29;101964.75;;;-11.49;44.53
69737;BME280;64476;55.004;73.342;2023-02-02T18:48:31;101988.44;;;-11.44;44.81
69737;BME280;64476;55.004;73.342;2023-02-02T18:51:33;101976.97;;;-11.64;45.61
69737;BME280;64476;55.004;73.342;2023-02-02T18:54:35;101968.06;;;-11.83;45.97
69737;BME280;64476;55.004;73.342;2023-02-02T18:57:46;102016.41;;;-11.66;46.05
69737;BME280;64476;55.004;73.342;2023-02-02T19:00:48;101965.06;;;-12.03;44.89
69737;BME280;64476;55.004;73.342;2023-02-02T19:03:52;101998.97;;;-11.90;45.28
69737;BME280;64476;55.004;73.342;2023-02-02T19:06:57;101945.91;;;-12.28;45.34
69737;BME280;64476;55.004;73.342;2023-02-02T19:10:28;101981.06;;;-12.01;46.16
69737;BME280;64476;55.004;73.342;2023-02-02T19:13:30;101997.28;;;-11.91;46.01